sensor_id;sensor_type;location;lat;lon;timestamp;pressure;altitude;pressure_sealevel;temperature;humidity
66689;BME280;53587;59.318;18.084;2023-07-09T00:00:48;102111.50;;;21.07;68.78
66689;BME280;53587;59.318;18.084;2023-07-09T00:03:14;102122.00;;;20.64;67.81
66689;BME280;53587;59.318;18.084;2023-07-09T00:05:39;102115.22;;;20.03;68.08
66689;BME280;53587;59.318;18.084;2023-07-09T00:08:04;102126.03;;;19.57;69.18
66689;BME280;53587;59.318;18.084;2023-07-09T00:10:29;102132.09;;;19.11;70.05
66689;BME280;53587;59.318;18.084;2023-07-09T00:12:55;102125.91;;;19.31;74.30
66689;BME280;53587;59.318;18.084;2023-07-09T00:15:20;102125.22;;;19.61;74.61
66689;BME280;53587;59.318;18.084;2023-07-09T00:17:46;102133.69;;;19.87;73.87
66689;BME280;53587;59.318;18.084;2023-07-09T00:20:13;102119.09;;;20.07;73.49
66689;BME280;53587;59.318;18.084;2023-07-09T00:22:42;102126.91;;;20.26;73.07
66689;BME280;53587;59.318;18.084;2023-07-09T00:25:09;102129.16;;;20.39;72.04
66689;BME280;53587;59.318;18.084;2023-07-09T00:27:38;102129.47;;;20.53;71.86
66689;BME280;53587;59.318;18.084;2023-07-09T00:30:05;102136.69;;;20.59;71.54
66689;BME280;53587;59.318;18.084;2023-07-09T00:32:30;102132.25;;;20.69;71.39
66689;BME280;53587;59.318;18.084;2023-07-09T00:34:55;102129.50;;;20.74;70.89
66689;BME280;53587;59.318;18.084;2023-07-09T00:37:21;102126.19;;;20.82;70.76
66689;BME280;53587;59.318;18.084;2023-07-09T00:39:50;102133.97;;;20.85;70.62
66689;BME280;53587;59.318;18.084;2023-07-09T00:42:17;102132.59;;;20.88;70.39
66689;BME280;53587;59.318;18.084;2023-07-09T00:44:47;102134.78;;;20.91;70.38
66689;BME280;53587;59.318;18.084;2023-07-09T00:47:37;102122.59;;;20.97;70.29
66689;BME280;53587;59.318;18.084;2023-07-09T00:50:26;102122.31;;;20.99;70.05
66689;BME280;53587;59.318;18.084;2023-07-09T00:52:56;102119.81;;;21.02;70.04
66689;BME280;53587;59.318;18.084;2023-07-09T00:55:26;102124.81;;;21.05;70.10
66689;BME280;53587;59.318;18.084;2023-07-09T00:57:55;102130.63;;;21.09;69.91
66689;BME280;53587;59.318;18.084;2023-07-09T01:00:23;102131.47;;;20.99;69.66
66689;BME280;53587;59.318;18.084;2023-07-09T01:02:50;102124.69;;;20.23;68.68
66689;BME280;53587;59.318;18.084;2023-07-09T01:05:15;102130.50;;;19.63;69.54
66689;BME280;53587;59.318;18.084;2023-07-09T01:07:42;102139.66;;;19.26;69.68
66689;BME280;53587;59.318;18.084;2023-07-09T01:10:11;102144.53;;;19.13;72.71
66689;BME280;53587;59.318;18.084;2023-07-09T01:12:36;102137.59;;;19.43;75.21
66689;BME280;53587;59.318;18.084;2023-07-09T01:15:02;102137.72;;;19.69;75.49
66689;BME280;53587;59.318;18.084;2023-07-09T01:17:28;102144.53;;;19.94;75.09
66689;BME280;53587;59.318;18.084;2023-07-09T01:19:53;102137.38;;;20.14;74.01
66689;BME280;53587;59.318;18.084;2023-07-09T01:22:20;102143.53;;;20.31;73.63
66689;BME280;53587;59.318;18.084;2023-07-09T01:24:53;102146.06;;;20.43;73.40
66689;BME280;53587;59.318;18.084;2023-07-09T01:27:20;102149.69;;;20.54;73.14
66689;BME280;53587;59.318;18.084;2023-07-09T01:29:46;102140.28;;;20.60;72.75
66689;BME280;53587;59.318;18.084;2023-07-09T01:32:14;102135.88;;;20.69;72.22
66689;BME280;53587;59.318;18.084;2023-07-09T01:34:40;102145.31;;;20.73;71.69
66689;BME280;53587;59.318;18.084;2023-07-09T01:37:06;102139.78;;;20.79;71.78
66689;BME280;53587;59.318;18.084;2023-07-09T01:39:31;102134.22;;;20.84;71.64
66689;BME280;53587;59.318;18.084;2023-07-09T01:41:56;102143.66;;;20.88;71.41
66689;BME280;53587;59.318;18.084;2023-07-09T01:44:22;102152.25;;;20.91;71.31
66689;BME280;53587;59.318;18.084;2023-07-09T01:46:48;102149.22;;;20.93;71.55
66689;BME280;53587;59.318;18.084;2023-07-09T01:49:13;102153.34;;;20.96;71.03
66689;BME280;53587;59.318;18.084;2023-07-09T01:51:40;102154.47;;;21.00;71.26
66689;BME280;53587;59.318;18.084;2023-07-09T01:54:05;102153.06;;;21.02;70.97
66689;BME280;53587;59.318;18.084;2023-07-09T01:56:31;102154.44;;;21.05;70.80
66689;BME280;53587;59.318;18.084;2023-07-09T01:58:56;102150.28;;;21.07;70.87
66689;BME280;53587;59.318;18.084;2023-07-09T02:01:26;102149.75;;;20.80;70.09
66689;BME280;53587;59.318;18.084;2023-07-09T02:03:52;102150.09;;;20.04;70.25
66689;BME280;53587;59.318;18.084;2023-07-09T02:06:18;102145.94;;;19.54;70.70
66689;BME280;53587;59.318;18.084;2023-07-09T02:08:44;102150.34;;;19.12;71.23
66689;BME280;53587;59.318;18.084;2023-07-09T02:11:10;102147.06;;;19.15;75.96
66689;BME280;53587;59.318;18.084;2023-07-09T02:13:35;102147.53;;;19.44;77.70
66689;BME280;53587;59.318;18.084;2023-07-09T02:16:00;102149.34;;;19.71;76.31
66689;BME280;53587;59.318;18.084;2023-07-09T02:18:28;102149.50;;;19.97;75.27
66689;BME280;53587;59.318;18.084;2023-07-09T02:20:53;102142.66;;;20.15;74.50
66689;BME280;53587;59.318;18.084;2023-07-09T02:23:18;102144.09;;;20.33;74.08
66689;BME280;53587;59.318;18.084;2023-07-09T02:25:44;102144.94;;;20.44;73.60
66689;BME280;53587;59.318;18.084;2023-07-09T02:28:09;102148.56;;;20.55;73.63
66689;BME280;53587;59.318;18.084;2023-07-09T02:30:34;102153.03;;;20.61;73.30
66689;BME280;53587;59.318;18.084;2023-07-09T02:32:59;102154.41;;;20.69;72.76
66689;BME280;53587;59.318;18.084;2023-07-09T02:35:24;102140.59;;;20.74;72.64
66689;BME280;53587;59.318;18.084;2023-07-09T02:37:50;102149.75;;;20.80;72.43
66689;BME280;53587;59.318;18.084;2023-07-09T02:40:15;102155.28;;;20.85;72.52
66689;BME280;53587;59.318;18.084;2023-07-09T02:42:40;102150.84;;;20.89;72.17
66689;BME280;53587;59.318;18.084;2023-07-09T02:45:05;102151.41;;;20.91;72.05
66689;BME280;53587;59.318;18.084;2023-07-09T02:47:31;102149.75;;;20.95;71.69
66689;BME280;53587;59.318;18.084;2023-07-09T02:49:56;102144.75;;;20.97;71.61
66689;BME280;53587;59.318;18.084;2023-07-09T02:52:21;102159.47;;;20.98;71.70
66689;BME280;53587;59.318;18.084;2023-07-09T02:54:46;102156.13;;;21.01;71.46
66689;BME280;53587;59.318;18.084;2023-07-09T02:57:12;102155.03;;;21.02;71.23
66689;BME280;53587;59.318;18.084;2023-07-09T02:59:37;102163.06;;;21.03;71.56
66689;BME280;53587;59.318;18.084;2023-07-09T03:02:02;102162.50;;;21.06;71.41
66689;BME280;53587;59.318;18.084;2023-07-09T03:04:28;102152.25;;;21.07;71.38
66689;BME280;53587;59.318;18.084;2023-07-09T03:06:53;102170.25;;;21.10;71.28
66689;BME280;53587;59.318;18.084;2023-07-09T03:09:19;102155.56;;;21.09;71.27
66689;BME280;53587;59.318;18.084;2023-07-09T03:11:44;102153.53;;;20.37;69.56
66689;BME280;53587;59.318;18.084;2023-07-09T03:14:10;102164.03;;;19.77;70.30
66689;BME280;53587;59.318;18.084;2023-07-09T03:16:35;102161.25;;;19.29;70.39
66689;BME280;53587;59.318;18.084;2023-07-09T03:19:01;102162.59;;;18.94;72.53
66689;BME280;53587;59.318;18.084;2023-07-09T03:21:27;102156.78;;;19.23;77.51
66689;BME280;53587;59.318;18.084;2023-07-09T03:23:52;102171.09;;;19.52;78.00
66689;BME280;53587;59.318;18.084;2023-07-09T03:26:18;102164.59;;;19.79;77.09
66689;BME280;53587;59.318;18.084;2023-07-09T03:28:43;102161.69;;;20.01;75.97
66689;BME280;53587;59.318;18.084;2023-07-09T03:31:09;102157.63;;;20.19;75.30
66689;BME280;53587;59.318;18.084;2023-07-09T03:33:34;102165.13;;;20.34;74.21
66689;BME280;53587;59.318;18.084;2023-07-09T03:35:59;102169.59;;;20.46;74.55
66689;BME280;53587;59.318;18.084;2023-07-09T03:38:24;102166.00;;;20.55;74.07
66689;BME280;53587;59.318;18.084;2023-07-09T03:40:50;102160.22;;;20.62;73.80
66689;BME280;53587;59.318;18.084;2023-07-09T03:43:16;102163.56;;;20.69;73.59
66689;BME280;53587;59.318;18.084;2023-07-09T03:45:41;102172.44;;;20.77;73.00
66689;BME280;53587;59.318;18.084;2023-07-09T03:48:08;102168.84;;;20.81;72.91
66689;BME280;53587;59.318;18.084;2023-07-09T03:50:34;102166.09;;;20.86;72.80
66689;BME280;53587;59.318;18.084;2023-07-09T03:52:59;102170.81;;;20.91;72.43
66689;BME280;53587;59.318;18.084;2023-07-09T03:55:25;102171.38;;;20.93;72.50
66689;BME280;53587;59.318;18.084;2023-07-09T03:57:52;102152.25;;;20.97;72.08
66689;BME280;53587;59.318;18.084;2023-07-09T04:00:17;102161.66;;;21.01;72.00
66689;BME280;53587;59.318;18.084;2023-07-09T04:02:42;102165.81;;;21.03;71.94
66689;BME280;53587;59.318;18.084;2023-07-09T04:05:10;102158.06;;;21.05;71.90
66689;BME280;53587;59.318;18.084;2023-07-09T04:07:36;102155.84;;;21.07;71.81
66689;BME280;53587;59.318;18.084;2023-07-09T04:10:02;102160.03;;;21.10;71.84
66689;BME280;53587;59.318;18.084;2023-07-09T04:12:27;102162.50;;;20.81;70.88
66689;BME280;53587;59.318;18.084;2023-07-09T04:14:52;102172.81;;;20.11;70.68
66689;BME280;53587;59.318;18.084;2023-07-09T04:17:18;102173.91;;;19.62;70.61
66689;BME280;53587;59.318;18.084;2023-07-09T04:19:43;102169.47;;;19.19;70.75
66689;BME280;53587;59.318;18.084;2023-07-09T04:22:10;102162.59;;;19.21;74.12
66689;BME280;53587;59.318;18.084;2023-07-09T04:24:35;102166.94;;;19.50;77.37
66689;BME280;53587;59.318;18.084;2023-07-09T04:27:00;102174.81;;;19.73;76.95
66689;BME280;53587;59.318;18.084;2023-07-09T04:29:28;102169.97;;;19.96;76.64
66689;BME280;53587;59.318;18.084;2023-07-09T04:31:53;102168.38;;;20.16;76.14
66689;BME280;53587;59.318;18.084;2023-07-09T04:34:18;102167.34;;;20.32;74.90
66689;BME280;53587;59.318;18.084;2023-07-09T04:36:44;102169.06;;;20.43;74.92
66689;BME280;53587;59.318;18.084;2023-07-09T04:39:09;102167.41;;;20.53;74.35
66689;BME280;53587;59.318;18.084;2023-07-09T04:41:34;102174.06;;;20.62;73.91
66689;BME280;53587;59.318;18.084;2023-07-09T04:43:59;102168.25;;;20.69;73.38
66689;BME280;53587;59.318;18.084;2023-07-09T04:46:24;102174.69;;;20.74;72.98
66689;BME280;53587;59.318;18.084;2023-07-09T04:48:50;102177.44;;;20.80;72.60
66689;BME280;53587;59.318;18.084;2023-07-09T04:51:15;102180.78;;;20.87;72.35
66689;BME280;53587;59.318;18.084;2023-07-09T04:53:40;102176.63;;;20.89;72.17
66689;BME280;53587;59.318;18.084;2023-07-09T04:56:07;102185.22;;;20.93;71.96
66689;BME280;53587;59.318;18.084;2023-07-09T04:58:32;102181.88;;;20.96;71.93
66689;BME280;53587;59.318;18.084;2023-07-09T05:00:58;102179.13;;;20.96;71.72
66689;BME280;53587;59.318;18.084;2023-07-09T05:03:23;102174.72;;;21.00;71.48
66689;BME280;53587;59.318;18.084;2023-07-09T05:05:48;102185.22;;;21.03;71.19
66689;BME280;53587;59.318;18.084;2023-07-09T05:08:13;102181.91;;;21.06;70.98
66689;BME280;53587;59.318;18.084;2023-07-09T05:10:42;102193.00;;;21.06;70.97
66689;BME280;53587;59.318;18.084;2023-07-09T05:13:07;102184.13;;;20.94;70.29
66689;BME280;53587;59.318;18.084;2023-07-09T05:15:33;102195.00;;;20.32;69.47
66689;BME280;53587;59.318;18.084;2023-07-09T05:17:58;102191.72;;;19.82;70.13
66689;BME280;53587;59.318;18.084;2023-07-09T05:20:23;102189.56;;;19.46;69.39
66689;BME280;53587;59.318;18.084;2023-07-09T05:22:49;102192.78;;;19.33;73.43
66689;BME280;53587;59.318;18.084;2023-07-09T05:25:15;102192.16;;;19.58;75.43
66689;BME280;53587;59.318;18.084;2023-07-09T05:27:40;102189.25;;;19.81;76.01
66689;BME280;53587;59.318;18.084;2023-07-09T05:30:05;102194.88;;;20.01;74.65
66689;BME280;53587;59.318;18.084;2023-07-09T05:32:31;102198.84;;;20.21;73.97
66689;BME280;53587;59.318;18.084;2023-07-09T05:34:56;102196.16;;;20.36;73.96
66689;BME280;53587;59.318;18.084;2023-07-09T05:37:21;102200.34;;;20.49;73.37
66689;BME280;53587;59.318;18.084;2023-07-09T05:39:46;102199.81;;;20.57;72.85
66689;BME280;53587;59.318;18.084;2023-07-09T05:42:11;102207.31;;;20.67;71.88
66689;BME280;53587;59.318;18.084;2023-07-09T05:44:37;102210.13;;;20.72;71.74
66689;BME280;53587;59.318;18.084;2023-07-09T05:47:02;102214.56;;;20.79;71.34
66689;BME280;53587;59.318;18.084;2023-07-09T05:49:27;102216.25;;;20.85;71.08
66689;BME280;53587;59.318;18.084;2023-07-09T05:51:52;102213.75;;;20.88;70.89
66689;BME280;53587;59.318;18.084;2023-07-09T05:54:18;102218.47;;;20.93;70.46
66689;BME280;53587;59.318;18.084;2023-07-09T05:56:44;102209.34;;;20.98;70.29
66689;BME280;53587;59.318;18.084;2023-07-09T05:59:09;102209.06;;;20.99;70.06
66689;BME280;53587;59.318;18.084;2023-07-09T06:01:35;102211.84;;;21.04;69.73
66689;BME280;53587;59.318;18.084;2023-07-09T06:04:00;102208.78;;;21.06;69.58
66689;BME280;53587;59.318;18.084;2023-07-09T06:06:25;102208.69;;;20.59;68.54
66689;BME280;53587;59.318;18.084;2023-07-09T06:08:51;102211.78;;;20.05;68.39
66689;BME280;53587;59.318;18.084;2023-07-09T06:11:16;102209.81;;;19.57;69.78
66689;BME280;53587;59.318;18.084;2023-07-09T06:13:42;102209.06;;;19.29;69.89
66689;BME280;53587;59.318;18.084;2023-07-09T06:16:08;102207.50;;;19.44;73.73
66689;BME280;53587;59.318;18.084;2023-07-09T06:18:33;102208.50;;;19.70;74.94
66689;BME280;53587;59.318;18.084;2023-07-09T06:20:59;102218.09;;;19.95;74.25
66689;BME280;53587;59.318;18.084;2023-07-09T06:23:25;102208.22;;;20.15;72.74
66689;BME280;53587;59.318;18.084;2023-07-09T06:25:50;102201.09;;;20.29;72.54
66689;BME280;53587;59.318;18.084;2023-07-09T06:28:20;102213.88;;;20.46;72.18
66689;BME280;53587;59.318;18.084;2023-07-09T06:30:45;102206.72;;;20.55;71.83
66689;BME280;53587;59.318;18.084;2023-07-09T06:33:11;102205.94;;;20.65;71.00
66689;BME280;53587;59.318;18.084;2023-07-09T06:35:38;102205.94;;;20.70;70.65
66689;BME280;53587;59.318;18.084;2023-07-09T06:38:04;102206.53;;;20.77;70.43
66689;BME280;53587;59.318;18.084;2023-07-09T06:40:29;102205.72;;;20.82;70.30
66689;BME280;53587;59.318;18.084;2023-07-09T06:42:54;102209.31;;;20.87;69.88
66689;BME280;53587;59.318;18.084;2023-07-09T06:45:20;102208.50;;;20.92;69.92
66689;BME280;53587;59.318;18.084;2023-07-09T06:47:45;102207.09;;;20.95;69.53
66689;BME280;53587;59.318;18.084;2023-07-09T06:50:11;102211.84;;;20.99;69.34
66689;BME280;53587;59.318;18.084;2023-07-09T06:52:37;102219.03;;;21.00;68.90
66689;BME280;53587;59.318;18.084;2023-07-09T06:55:02;102211.00;;;21.04;68.94
66689;BME280;53587;59.318;18.084;2023-07-09T06:57:27;102217.81;;;20.60;67.97
66689;BME280;53587;59.318;18.084;2023-07-09T06:59:53;102214.56;;;20.05;68.34
66689;BME280;53587;59.318;18.084;2023-07-09T07:02:18;102217.06;;;19.63;68.63
66689;BME280;53587;59.318;18.084;2023-07-09T07:04:43;102211.31;;;19.33;70.01
66689;BME280;53587;59.318;18.084;2023-07-09T07:07:08;102222.25;;;19.55;73.12
66689;BME280;53587;59.318;18.084;2023-07-09T07:09:34;102226.28;;;19.79;74.15
66689;BME280;53587;59.318;18.084;2023-07-09T07:12:00;102219.78;;;20.01;73.21
66689;BME280;53587;59.318;18.084;2023-07-09T07:14:25;102221.00;;;20.21;72.15
66689;BME280;53587;59.318;18.084;2023-07-09T07:16:50;102223.84;;;20.36;72.24
66689;BME280;53587;59.318;18.084;2023-07-09T07:19:15;102222.50;;;20.49;71.46
66689;BME280;53587;59.318;18.084;2023-07-09T07:21:40;102220.00;;;20.58;71.17
66689;BME280;53587;59.318;18.084;2023-07-09T07:24:06;102228.63;;;20.67;70.83
66689;BME280;53587;59.318;18.084;2023-07-09T07:26:31;102220.09;;;20.73;70.48
66689;BME280;53587;59.318;18.084;2023-07-09T07:28:56;102227.31;;;20.80;70.12
66689;BME280;53587;59.318;18.084;2023-07-09T07:31:21;102219.84;;;20.85;70.39
66689;BME280;53587;59.318;18.084;2023-07-09T07:33:46;102222.88;;;20.89;69.51
66689;BME280;53587;59.318;18.084;2023-07-09T07:36:12;102226.78;;;20.93;69.72
66689;BME280;53587;59.318;18.084;2023-07-09T07:38:37;102225.13;;;20.97;69.37
66689;BME280;53587;59.318;18.084;2023-07-09T07:41:02;102229.28;;;21.00;69.21
66689;BME280;53587;59.318;18.084;2023-07-09T07:43:27;102239.53;;;21.04;69.17
66689;BME280;53587;59.318;18.084;2023-07-09T07:45:53;102237.78;;;20.62;68.45
66689;BME280;53587;59.318;18.084;2023-07-09T07:48:18;102240.63;;;20.14;67.74
66689;BME280;53587;59.318;18.084;2023-07-09T07:50:44;102238.44;;;19.78;67.71
66689;BME280;53587;59.318;18.084;2023-07-09T07:53:11;102234.88;;;19.45;68.95
66689;BME280;53587;59.318;18.084;2023-07-09T07:55:36;102237.22;;;19.59;73.27
66689;BME280;53587;59.318;18.084;2023-07-09T07:58:03;102240.69;;;19.82;73.67
66689;BME280;53587;59.318;18.084;2023-07-09T08:00:29;102242.78;;;20.02;73.16
66689;BME280;53587;59.318;18.084;2023-07-09T08:02:54;102242.59;;;20.19;72.61
66689;BME280;53587;59.318;18.084;2023-07-09T08:05:19;102247.66;;;20.37;72.26
66689;BME280;53587;59.318;18.084;2023-07-09T08:07:45;102244.91;;;20.48;71.46
66689;BME280;53587;59.318;18.084;2023-07-09T08:10:10;102247.72;;;20.58;70.73
66689;BME280;53587;59.318;18.084;2023-07-09T08:12:36;102248.00;;;20.67;71.14
66689;BME280;53587;59.318;18.084;2023-07-09T08:15:02;102242.25;;;20.73;70.41
66689;BME280;53587;59.318;18.084;2023-07-09T08:17:27;102242.00;;;20.80;70.08
66689;BME280;53587;59.318;18.084;2023-07-09T08:19:53;102247.56;;;20.85;69.81
66689;BME280;53587;59.318;18.084;2023-07-09T08:22:19;102240.06;;;20.91;69.63
66689;BME280;53587;59.318;18.084;2023-07-09T08:24:47;102237.88;;;20.93;69.61
66689;BME280;53587;59.318;18.084;2023-07-09T08:27:13;102244.53;;;20.97;69.46
66689;BME280;53587;59.318;18.084;2023-07-09T08:29:38;102244.81;;;21.01;69.29
66689;BME280;53587;59.318;18.084;2023-07-09T08:32:05;102246.19;;;21.03;68.91
66689;BME280;53587;59.318;18.084;2023-07-09T08:34:31;102240.34;;;20.84;68.08
66689;BME280;53587;59.318;18.084;2023-07-09T08:36:56;102240.97;;;20.33;67.89
66689;BME280;53587;59.318;18.084;2023-07-09T08:39:21;102238.28;;;19.90;67.70
66689;BME280;53587;59.318;18.084;2023-07-09T08:49:33;102243.06;;;20.00;72.74
66689;BME280;53587;59.318;18.084;2023-07-09T08:52:00;102242.03;;;20.22;72.29
66689;BME280;53587;59.318;18.084;2023-07-09T08:54:27;102240.44;;;20.36;71.94
66689;BME280;53587;59.318;18.084;2023-07-09T08:56:53;102234.66;;;20.48;70.97
66689;BME280;53587;59.318;18.084;2023-07-09T08:59:19;102244.69;;;20.59;70.88
66689;BME280;53587;59.318;18.084;2023-07-09T09:01:53;102249.97;;;20.66;70.59
66689;BME280;53587;59.318;18.084;2023-07-09T09:04:29;102235.06;;;20.72;70.19
66689;BME280;53587;59.318;18.084;2023-07-09T09:09:28;102239.25;;;20.85;69.55
66689;BME280;53587;59.318;18.084;2023-07-09T09:12:10;102238.16;;;20.91;69.31
66689;BME280;53587;59.318;18.084;2023-07-09T09:14:37;102235.63;;;20.95;69.15
66689;BME280;53587;59.318;18.084;2023-07-09T09:17:04;102238.16;;;20.97;69.03
66689;BME280;53587;59.318;18.084;2023-07-09T09:19:38;102236.22;;;21.02;68.68
66689;BME280;53587;59.318;18.084;2023-07-09T09:22:11;102240.59;;;20.72;68.08
66689;BME280;53587;59.318;18.084;2023-07-09T09:27:12;102238.16;;;19.80;67.64
66689;BME280;53587;59.318;18.084;2023-07-09T09:29:38;102240.38;;;19.40;68.69
66689;BME280;53587;59.318;18.084;2023-07-09T09:32:11;102244.97;;;19.62;72.66
66689;BME280;53587;59.318;18.084;2023-07-09T09:34:41;102246.28;;;19.87;73.30
66689;BME280;53587;59.318;18.084;2023-07-09T09:37:09;102239.75;;;20.08;72.93
66689;BME280;53587;59.318;18.084;2023-07-09T09:39:37;102241.25;;;20.26;71.54
66689;BME280;53587;59.318;18.084;2023-07-09T09:42:03;102239.38;;;20.42;71.71
66689;BME280;53587;59.318;18.084;2023-07-09T09:44:33;102237.47;;;20.53;70.85
66689;BME280;53587;59.318;18.084;2023-07-09T09:46:58;102237.78;;;20.62;70.22
66689;BME280;53587;59.318;18.084;2023-07-09T09:49:24;102241.13;;;20.69;70.03
66689;BME280;53587;59.318;18.084;2023-07-09T09:51:49;102234.25;;;20.77;69.82
66689;BME280;53587;59.318;18.084;2023-07-09T09:54:22;102236.72;;;20.84;69.36
66689;BME280;53587;59.318;18.084;2023-07-09T09:56:49;102241.47;;;20.88;69.14
66689;BME280;53587;59.318;18.084;2023-07-09T09:59:23;102234.53;;;20.91;69.09
66689;BME280;53587;59.318;18.084;2023-07-09T10:01:57;102234.53;;;20.96;68.74
66689;BME280;53587;59.318;18.084;2023-07-09T10:04:23;102235.09;;;20.98;68.53
66689;BME280;53587;59.318;18.084;2023-07-09T10:06:50;102236.50;;;21.01;68.34
66689;BME280;53587;59.318;18.084;2023-07-09T10:14:33;102237.81;;;19.66;67.96
66689;BME280;53587;59.318;18.084;2023-07-09T10:17:03;102235.97;;;19.44;70.77
66689;BME280;53587;59.318;18.084;2023-07-09T10:19:45;102238.69;;;19.72;72.55
66689;BME280;53587;59.318;18.084;2023-07-09T10:30:53;102237.72;;;20.52;70.57
66689;BME280;53587;59.318;18.084;2023-07-09T10:34:26;102236.91;;;20.62;70.15
66689;BME280;53587;59.318;18.084;2023-07-09T10:37:00;102241.69;;;20.71;69.65
66689;BME280;53587;59.318;18.084;2023-07-09T10:39:10;102237.53;;;20.79;69.29
66689;BME280;53587;59.318;18.084;2023-07-09T10:41:38;102239.25;;;20.85;69.04
66689;BME280;53587;59.318;18.084;2023-07-09T10:44:16;102235.38;;;20.91;68.75
66689;BME280;53587;59.318;18.084;2023-07-09T10:46:45;102237.31;;;20.96;68.04
66689;BME280;53587;59.318;18.084;2023-07-09T10:49:13;102232.63;;;20.97;68.48
66689;BME280;53587;59.318;18.084;2023-07-09T10:51:40;102240.94;;;21.02;68.05
66689;BME280;53587;59.318;18.084;2023-07-09T10:54:21;102238.38;;;20.74;67.65
66689;BME280;53587;59.318;18.084;2023-07-09T10:56:51;102243.13;;;20.21;67.46
66689;BME280;53587;59.318;18.084;2023-07-09T10:59:21;102239.03;;;19.81;67.22
66689;BME280;53587;59.318;18.084;2023-07-09T11:01:53;102233.28;;;19.50;68.30
66689;BME280;53587;59.318;18.084;2023-07-09T11:04:31;102235.63;;;19.68;72.19
66689;BME280;53587;59.318;18.084;2023-07-09T11:06:59;102235.53;;;19.90;71.73
66689;BME280;53587;59.318;18.084;2023-07-09T11:09:28;102237.56;;;20.10;70.77
66689;BME280;53587;59.318;18.084;2023-07-09T11:11:55;102239.88;;;20.29;70.79
66689;BME280;53587;59.318;18.084;2023-07-09T11:16:56;102238.00;;;20.55;69.22
66689;BME280;53587;59.318;18.084;2023-07-09T11:19:23;102237.22;;;20.65;68.93
66689;BME280;53587;59.318;18.084;2023-07-09T11:27:21;102225.41;;;20.85;68.37
66689;BME280;53587;59.318;18.084;2023-07-09T11:29:47;102230.09;;;20.90;68.45
66689;BME280;53587;59.318;18.084;2023-07-09T11:32:20;102226.22;;;20.96;67.94
66689;BME280;53587;59.318;18.084;2023-07-09T11:34:46;102220.69;;;20.96;67.85
66689;BME280;53587;59.318;18.084;2023-07-09T11:37:12;102215.13;;;21.01;67.67
66689;BME280;53587;59.318;18.084;2023-07-09T11:42:03;102219.31;;;20.20;66.96
66689;BME280;53587;59.318;18.084;2023-07-09T11:44:29;102214.94;;;19.81;67.27
66689;BME280;53587;59.318;18.084;2023-07-09T11:47:01;102215.03;;;19.49;67.95
66689;BME280;53587;59.318;18.084;2023-07-09T11:49:34;102225.66;;;19.67;72.08
66689;BME280;53587;59.318;18.084;2023-07-09T11:52:04;102225.84;;;19.93;72.04
66689;BME280;53587;59.318;18.084;2023-07-09T11:54:33;102225.13;;;20.13;71.52
66689;BME280;53587;59.318;18.084;2023-07-09T11:56:59;102219.09;;;20.32;70.38
66689;BME280;53587;59.318;18.084;2023-07-09T11:59:25;102220.53;;;20.44;69.87
66689;BME280;53587;59.318;18.084;2023-07-09T12:01:51;102216.72;;;20.56;69.36
66689;BME280;53587;59.318;18.084;2023-07-09T12:04:19;102224.47;;;20.64;68.92
66689;BME280;53587;59.318;18.084;2023-07-09T12:06:45;102223.38;;;20.70;68.77
66689;BME280;53587;59.318;18.084;2023-07-09T12:09:16;102231.19;;;20.79;68.42
66689;BME280;53587;59.318;18.084;2023-07-09T12:11:43;102234.81;;;20.84;68.49
66689;BME280;53587;59.318;18.084;2023-07-09T12:14:13;102235.09;;;20.88;67.74
66689;BME280;53587;59.318;18.084;2023-07-09T12:16:43;102228.47;;;20.94;67.74
66689;BME280;53587;59.318;18.084;2023-07-09T12:19:12;102221.25;;;20.98;67.48
66689;BME280;53587;59.318;18.084;2023-07-09T12:21:38;102221.78;;;20.95;67.52
66689;BME280;53587;59.318;18.084;2023-07-09T12:24:13;102227.22;;;20.54;66.99
66689;BME280;53587;59.318;18.084;2023-07-09T12:26:40;102232.56;;;20.07;66.62
66689;BME280;53587;59.318;18.084;2023-07-09T12:29:07;102237.25;;;19.69;67.14
66689;BME280;53587;59.318;18.084;2023-07-09T12:31:34;102237.97;;;19.49;70.02
66689;BME280;53587;59.318;18.084;2023-07-09T12:33:59;102233.72;;;19.74;71.30
66689;BME280;53587;59.318;18.084;2023-07-09T12:36:25;102230.84;;;19.96;71.44
66689;BME280;53587;59.318;18.084;2023-07-09T12:38:51;102235.38;;;20.18;70.47
66689;BME280;53587;59.318;18.084;2023-07-09T12:43:42;102232.16;;;20.47;69.05
66689;BME280;53587;59.318;18.084;2023-07-09T12:46:08;102236.63;;;20.58;69.19
66689;BME280;53587;59.318;18.084;2023-07-09T12:48:33;102230.84;;;20.65;68.81
66689;BME280;53587;59.318;18.084;2023-07-09T12:50:59;102236.16;;;20.71;68.65
66689;BME280;53587;59.318;18.084;2023-07-09T12:53:28;102232.84;;;20.80;67.88
66689;BME280;53587;59.318;18.084;2023-07-09T12:55:57;102236.19;;;20.87;67.77
66689;BME280;53587;59.318;18.084;2023-07-09T12:58:24;102231.19;;;20.89;67.67
66689;BME280;53587;59.318;18.084;2023-07-09T13:00:50;102227.59;;;20.94;67.32
66689;BME280;53587;59.318;18.084;2023-07-09T13:03:20;102238.97;;;20.97;67.25
66689;BME280;53587;59.318;18.084;2023-07-09T13:05:53;102235.09;;;20.98;67.18
66689;BME280;53587;59.318;18.084;2023-07-09T13:08:19;102235.00;;;20.57;66.52
66689;BME280;53587;59.318;18.084;2023-07-09T13:10:44;102237.25;;;20.07;66.37
66689;BME280;53587;59.318;18.084;2023-07-09T13:13:10;102240.59;;;19.71;66.75
66689;BME280;53587;59.318;18.084;2023-07-09T13:18:03;102235.06;;;19.71;70.86
66689;BME280;53587;59.318;18.084;2023-07-09T13:20:29;102237.47;;;19.95;70.63